createdAt,value
2022-09-11T00:01:54.029Z,39.10
2022-09-11T00:04:23.354Z,39.50
2022-09-11T00:06:52.609Z,40.08
2022-09-11T00:09:22.590Z,40.20
2022-09-11T00:11:51.625Z,39.72
2022-09-11T00:14:21.925Z,36.75
2022-09-11T00:16:51.224Z,37.50
2022-09-11T00:19:23.362Z,40.60
2022-09-11T00:21:52.775Z,37.08
2022-09-11T00:24:21.812Z,40.17
2022-09-11T00:26:51.824Z,40.08
2022-09-11T00:29:21.235Z,40.08
2022-09-11T00:31:50.627Z,40.72
2022-09-11T00:34:20.494Z,39.03
2022-09-11T00:36:49.754Z,39.35
2022-09-11T00:39:19.225Z,39.38
2022-09-11T00:41:48.570Z,40.33
2022-09-11T00:44:20.853Z,41.38
2022-09-11T00:46:54.464Z,38.80
2022-09-11T00:49:33.660Z,40.30
2022-09-11T00:52:31.564Z,40.05
2022-09-11T00:55:10.300Z,40.83
2022-09-11T00:57:50.768Z,41.92
2022-09-11T01:00:21.079Z,43.70
2022-09-11T01:02:53.293Z,39.75
2022-09-11T01:05:25.033Z,39.92
2022-09-11T01:07:57.449Z,40.03
2022-09-11T01:10:57.349Z,40.00
2022-09-11T01:13:39.797Z,40.72
2022-09-11T01:16:21.088Z,41.08
2022-09-11T01:19:38.799Z,41.20
2022-09-11T01:22:46.496Z,40.28
2022-09-11T01:25:33.057Z,40.55
2022-09-11T01:28:10.812Z,42.63
2022-09-11T01:30:48.634Z,42.20
2022-09-11T01:33:41.900Z,43.92
2022-09-11T01:36:42.066Z,42.15
2022-09-11T01:39:12.908Z,43.08
2022-09-11T01:41:54.257Z,41.92
2022-09-11T01:44:45.708Z,39.50
2022-09-11T01:47:17.620Z,42.17
2022-09-11T01:50:22.912Z,39.70
2022-09-11T01:53:01.734Z,39.33
2022-09-11T01:55:56.796Z,40.88
2022-09-11T01:58:31.913Z,40.63
2022-09-11T02:01:08.557Z,40.40
2022-09-11T02:04:09.036Z,42.28
2022-09-11T02:06:47.516Z,41.33
2022-09-11T02:09:23.296Z,41.90
2022-09-11T02:11:57.374Z,41.05
2022-09-11T02:17:17.385Z,38.17
2022-09-11T02:19:46.825Z,40.33
2022-09-11T02:22:15.885Z,40.35
2022-09-11T02:24:45.846Z,40.83
2022-09-11T02:27:23.803Z,37.13
2022-09-11T02:29:55.466Z,40.67
2022-09-11T02:32:26.839Z,39.38
2022-09-11T02:34:58.170Z,41.70
2022-09-11T02:37:40.656Z,39.17
2022-09-11T02:40:42.669Z,37.88
2022-09-11T02:43:28.623Z,37.53
2022-09-11T02:46:28.450Z,41.42
2022-09-11T02:49:16.035Z,35.92
2022-09-11T02:51:57.266Z,34.95
2022-09-11T02:55:03.217Z,33.28
2022-09-11T02:58:09.530Z,33.65
2022-09-11T03:00:41.780Z,32.55
2022-09-11T03:03:11.229Z,33.20
2022-09-11T03:05:41.428Z,32.55
2022-09-11T03:08:11.688Z,33.83
2022-09-11T03:10:41.464Z,30.92
2022-09-11T03:13:15.135Z,32.83
2022-09-11T03:15:46.790Z,33.63
2022-09-11T03:18:17.008Z,31.35
2022-09-11T03:20:48.523Z,29.08
2022-09-11T03:23:19.256Z,30.02
2022-09-11T03:25:48.739Z,31.58
2022-09-11T03:28:18.410Z,28.25
2022-09-11T03:30:48.354Z,29.08
2022-09-11T03:33:21.098Z,30.45
2022-09-11T03:35:50.761Z,31.10
2022-09-11T03:38:21.819Z,30.05
2022-09-11T03:40:51.830Z,27.90
2022-09-11T03:43:20.631Z,31.20
2022-09-11T03:45:53.916Z,30.30
2022-09-11T03:48:23.310Z,30.67
2022-09-11T03:50:52.831Z,29.35
2022-09-11T03:53:22.938Z,27.50
2022-09-11T03:55:52.023Z,29.42
2022-09-11T03:58:21.502Z,26.65
2022-09-11T04:00:50.791Z,28.80
2022-09-11T04:03:20.308Z,27.58
2022-09-11T04:06:10.162Z,27.75
2022-09-11T04:08:42.209Z,28.00
2022-09-11T04:11:13.686Z,28.48
2022-09-11T04:13:44.629Z,29.55
2022-09-11T04:16:18.965Z,29.50
2022-09-11T04:18:54.619Z,30.35
2022-09-11T04:21:25.667Z,28.63
2022-09-11T04:23:58.828Z,28.73
2022-09-11T04:26:32.179Z,29.25
2022-09-11T04:29:11.381Z,28.92
2022-09-11T04:31:42.429Z,28.85
2022-09-11T04:34:14.715Z,30.83
2022-09-11T04:36:44.825Z,30.58
2022-09-11T04:39:19.704Z,29.80
2022-09-11T04:41:50.682Z,52.95
2022-09-11T04:44:21.881Z,33.50
2022-09-11T04:46:51.621Z,33.78
2022-09-11T04:49:21.960Z,32.50
2022-09-11T04:51:51.561Z,34.72
2022-09-11T04:54:25.342Z,31.45
2022-09-11T04:56:55.931Z,33.13
2022-09-11T04:59:25.820Z,31.38
2022-09-11T05:02:04.643Z,31.83
2022-09-11T05:04:37.515Z,31.15
2022-09-11T05:07:07.384Z,33.70
2022-09-11T05:09:37.095Z,29.17
2022-09-11T05:12:07.364Z,30.67
2022-09-11T05:14:39.149Z,29.40
2022-09-11T05:17:08.923Z,28.98
2022-09-11T05:19:42.519Z,29.88
2022-09-11T05:22:11.974Z,30.73
2022-09-11T05:24:46.456Z,30.85
2022-09-11T05:27:16.346Z,29.30
2022-09-11T05:29:46.892Z,29.83
2022-09-11T05:32:17.485Z,31.95
2022-09-11T05:34:47.253Z,31.40
2022-09-11T05:37:18.759Z,33.08
2022-09-11T05:39:49.877Z,29.88
2022-09-11T05:42:23.191Z,30.17
2022-09-11T05:44:56.279Z,31.33
2022-09-11T05:49:58.017Z,30.38
2022-09-11T05:52:31.762Z,31.42
2022-09-11T05:55:01.167Z,31.73
2022-09-11T05:57:32.307Z,32.92
2022-09-11T06:00:02.155Z,35.80
2022-09-11T06:02:34.588Z,39.13
2022-09-11T06:05:04.309Z,37.22
2022-09-11T06:07:36.685Z,36.42
2022-09-11T06:10:06.036Z,37.63
2022-09-11T06:12:35.541Z,37.05
2022-09-11T06:15:05.275Z,37.45
2022-09-11T06:17:34.436Z,37.70
2022-09-11T06:20:03.464Z,36.72
2022-09-11T06:22:34.769Z,36.53
2022-09-11T06:25:04.344Z,34.22
2022-09-11T06:27:33.785Z,34.05
2022-09-11T06:30:03.278Z,33.42
2022-09-11T06:32:37.847Z,31.88
2022-09-11T06:35:08.607Z,32.03
2022-09-11T06:37:38.248Z,31.98
2022-09-11T06:40:09.767Z,29.85
2022-09-11T06:42:39.474Z,31.00
2022-09-11T06:45:10.089Z,27.80
2022-09-11T06:47:40.075Z,30.05
2022-09-11T06:50:09.909Z,28.85
2022-09-11T06:53:00.018Z,28.55
2022-09-11T06:55:32.837Z,28.77
2022-09-11T06:58:10.070Z,31.25
2022-09-11T07:00:39.901Z,28.98
2022-09-11T07:03:11.195Z,28.60
2022-09-11T07:05:47.200Z,29.67
2022-09-11T07:08:19.805Z,28.85
2022-09-11T07:10:53.047Z,27.65
2022-09-11T07:13:25.525Z,28.15
2022-09-11T07:16:06.260Z,29.05
2022-09-11T07:18:40.886Z,28.80
2022-09-11T07:21:17.696Z,28.23
2022-09-11T07:23:50.796Z,26.20
2022-09-11T07:26:20.703Z,27.67
2022-09-11T07:28:52.696Z,26.67
2022-09-11T07:31:24.718Z,28.90
2022-09-11T07:33:55.014Z,28.75
2022-09-11T07:36:28.143Z,26.48
2022-09-11T07:38:57.621Z,27.48
2022-09-11T07:41:34.759Z,28.15
2022-09-11T07:44:11.605Z,26.88
2022-09-11T07:46:42.450Z,27.38
2022-09-11T07:49:14.423Z,26.13
2022-09-11T07:51:45.414Z,26.23
2022-09-11T07:54:18.147Z,26.38
2022-09-11T07:56:47.587Z,27.00
2022-09-11T07:59:19.465Z,27.00
2022-09-11T08:01:54.650Z,65.18
2022-09-11T08:04:24.500Z,25.15
2022-09-11T08:06:54.344Z,35.13
2022-09-11T08:09:29.706Z,29.25
2022-09-11T08:12:02.282Z,20.83
2022-09-11T08:17:10.549Z,11.98
2022-09-11T08:19:41.948Z,9.77
2022-09-11T08:22:12.929Z,4.95
2022-09-11T08:24:46.159Z,5.85
2022-09-11T08:27:18.837Z,6.00
2022-09-11T08:29:49.088Z,6.28
2022-09-11T08:32:19.523Z,5.72
2022-09-11T08:34:49.817Z,6.32
2022-09-11T08:37:19.246Z,6.65
2022-09-11T08:39:50.184Z,6.30
2022-09-11T08:42:19.584Z,6.75
2022-09-11T08:45:00.233Z,6.15
2022-09-11T08:47:50.807Z,6.22
2022-09-11T08:50:28.821Z,6.03
2022-09-11T08:53:02.634Z,6.15
2022-09-11T08:55:42.956Z,5.47
2022-09-11T08:58:19.317Z,5.68
2022-09-11T09:01:15.722Z,6.07
2022-09-11T09:04:42.723Z,6.20
2022-09-11T09:07:34.803Z,5.55
2022-09-11T09:10:33.967Z,5.45
2022-09-11T09:13:16.597Z,5.38
2022-09-11T09:16:10.930Z,5.45
2022-09-11T09:18:52.350Z,5.20
2022-09-11T09:21:39.724Z,5.45
2022-09-11T09:24:23.046Z,5.32
2022-09-11T09:26:57.553Z,5.70
2022-09-11T09:32:05.706Z,7.40
2022-09-11T09:34:39.962Z,7.40
2022-09-11T09:37:21.646Z,7.53
2022-09-11T09:39:52.505Z,8.35
2022-09-11T09:42:52.855Z,6.38
2022-09-11T09:45:44.365Z,5.07
2022-09-11T09:48:14.151Z,5.20
2022-09-11T09:50:48.021Z,5.43
2022-09-11T09:53:45.082Z,5.38
2022-09-11T09:56:19.107Z,6.00
2022-09-11T09:59:03.668Z,5.55
2022-09-11T10:01:52.658Z,4.82
2022-09-11T10:04:31.506Z,6.03
2022-09-11T10:07:12.814Z,5.70
2022-09-11T10:09:47.897Z,6.30
2022-09-11T10:12:29.256Z,5.03
2022-09-11T10:15:01.549Z,5.43
2022-09-11T10:17:30.887Z,5.47
2022-09-11T10:20:20.749Z,6.05
2022-09-11T10:22:54.243Z,6.65
2022-09-11T10:25:31.321Z,5.18
2022-09-11T10:28:10.409Z,5.95
2022-09-11T10:30:42.734Z,4.57
2022-09-11T10:33:33.035Z,5.53
2022-09-11T10:36:05.799Z,5.75
2022-09-11T10:38:41.449Z,6.05
2022-09-11T10:41:24.159Z,5.00
2022-09-11T10:44:05.694Z,4.78
2022-09-11T10:46:41.427Z,5.68
2022-09-11T10:49:23.344Z,4.65
2022-09-11T10:52:11.417Z,4.47
2022-09-11T10:54:45.937Z,4.97
2022-09-11T10:57:44.805Z,4.82
2022-09-11T11:00:24.059Z,4.35
2022-09-11T11:02:57.675Z,6.10
2022-09-11T11:05:50.692Z,5.10
2022-09-11T11:08:51.893Z,5.60
2022-09-11T11:11:42.396Z,4.70
2022-09-11T11:14:33.190Z,4.43
2022-09-11T11:17:24.164Z,5.47
2022-09-11T11:20:08.903Z,5.18
2022-09-11T11:22:59.989Z,5.65
2022-09-11T11:25:49.767Z,4.97
2022-09-11T11:28:26.128Z,5.35
2022-09-11T11:31:13.179Z,3.95
2022-09-11T11:33:52.755Z,4.90
2022-09-11T11:36:34.174Z,5.15
2022-09-11T11:39:21.963Z,5.00
2022-09-11T11:42:16.860Z,5.35
2022-09-11T11:44:55.830Z,4.63
2022-09-11T11:47:31.177Z,4.30
2022-09-11T11:50:09.864Z,5.03
2022-09-11T11:53:11.071Z,5.03
2022-09-11T11:56:13.470Z,4.97
2022-09-11T11:58:56.864Z,4.30
2022-09-11T12:01:40.238Z,5.32
2022-09-11T12:04:39.729Z,5.18
2022-09-11T12:07:20.753Z,5.45
2022-09-11T12:09:52.414Z,5.10
2022-09-11T12:12:25.102Z,4.82
2022-09-11T12:15:04.339Z,4.10
2022-09-11T12:17:37.962Z,4.38
2022-09-11T12:20:13.496Z,4.78
2022-09-11T12:22:51.379Z,4.82
2022-09-11T12:25:20.614Z,4.78
2022-09-11T12:27:57.241Z,5.55
2022-09-11T12:30:29.725Z,5.68
2022-09-11T12:38:15.659Z,4.90
2022-09-11T12:40:57.380Z,6.00
2022-09-11T12:43:39.345Z,7.20
2022-09-11T12:46:15.063Z,6.50
2022-09-11T12:49:00.289Z,6.13
2022-09-11T12:51:44.177Z,5.45
2022-09-11T12:54:28.809Z,5.75
2022-09-11T12:57:06.922Z,5.72
2022-09-11T12:59:42.992Z,6.30
2022-09-11T14:50:21.158Z,7.20
2022-09-11T14:52:51.040Z,7.15
2022-09-11T14:55:21.836Z,6.40
2022-09-11T14:57:51.446Z,6.10
2022-09-11T15:00:21.693Z,7.28
2022-09-11T15:02:51.517Z,7.28
2022-09-11T15:05:24.143Z,8.20
2022-09-11T15:10:24.211Z,8.07
2022-09-11T15:12:53.560Z,7.72
2022-09-11T15:15:28.894Z,8.18
2022-09-11T15:17:59.040Z,7.25
2022-09-11T15:20:28.863Z,7.95
2022-09-11T15:22:58.596Z,8.35
2022-09-11T15:25:28.011Z,8.63
2022-09-11T15:27:58.074Z,8.88
2022-09-11T15:30:28.825Z,7.97
2022-09-11T15:32:58.566Z,8.52
2022-09-11T15:35:32.711Z,9.23
2022-09-11T15:38:02.728Z,9.25
2022-09-11T15:40:31.822Z,9.25
2022-09-11T15:43:01.428Z,8.90
2022-09-11T15:45:31.365Z,10.82
2022-09-11T15:48:01.270Z,10.23
2022-09-11T15:50:31.413Z,11.23
2022-09-11T15:53:00.973Z,28.25
2022-09-11T15:55:31.517Z,23.30
2022-09-11T15:58:02.104Z,26.05
2022-09-11T16:00:31.585Z,27.02
2022-09-11T16:03:00.766Z,26.95
2022-09-11T16:05:32.369Z,26.88
2022-09-11T16:08:02.571Z,22.83
2022-09-11T16:10:32.422Z,24.30
2022-09-11T16:13:03.092Z,27.00
2022-09-11T16:18:09.530Z,27.85
2022-09-11T16:20:42.755Z,28.42
2022-09-11T16:23:13.712Z,26.50
2022-09-11T16:25:44.229Z,25.95
2022-09-11T16:28:15.562Z,27.00
2022-09-11T16:30:49.483Z,25.88
2022-09-11T16:33:21.376Z,26.48
2022-09-11T16:36:07.994Z,28.70
2022-09-11T16:38:44.787Z,25.70
2022-09-11T16:41:31.027Z,25.73
2022-09-11T16:44:02.241Z,27.33
2022-09-11T16:46:35.565Z,26.08
2022-09-11T16:49:07.247Z,26.38
2022-09-11T16:51:37.102Z,38.35
2022-09-11T16:54:07.296Z,33.95
2022-09-11T16:56:36.992Z,29.17
2022-09-11T16:59:09.286Z,29.90
2022-09-11T17:01:41.931Z,28.75
2022-09-11T17:04:13.056Z,30.85
2022-09-11T17:06:42.682Z,34.55
2022-09-11T17:09:12.706Z,27.90
2022-09-11T17:11:43.047Z,25.73
2022-09-11T17:14:13.699Z,37.40
2022-09-11T17:16:43.114Z,31.83
2022-09-11T17:19:15.261Z,47.58
2022-09-11T17:21:49.247Z,85.68
2022-09-11T17:24:23.485Z,73.45
2022-09-11T17:26:55.166Z,65.50
2022-09-11T17:29:25.127Z,49.10
2022-09-11T17:32:23.702Z,42.25
2022-09-11T17:34:49.062Z,28.15
2022-09-11T17:37:19.156Z,29.70
2022-09-11T17:39:48.612Z,19.30
2022-09-11T17:42:19.060Z,15.88
2022-09-11T17:44:49.178Z,14.27
2022-09-11T17:47:19.193Z,12.23
2022-09-11T17:49:48.311Z,14.10
2022-09-11T17:52:20.458Z,13.65
2022-09-11T17:54:50.267Z,12.45
2022-09-11T17:57:19.950Z,11.77
2022-09-11T17:59:52.569Z,13.45
2022-09-11T18:02:22.673Z,12.63
2022-09-11T18:04:52.138Z,11.60
2022-09-11T18:07:21.997Z,11.18
2022-09-11T18:09:56.556Z,13.07
2022-09-11T18:12:28.118Z,14.20
2022-09-11T18:15:00.388Z,12.80
2022-09-11T18:17:31.550Z,10.93
2022-09-11T18:20:01.547Z,10.55
2022-09-11T18:22:31.329Z,13.98
2022-09-11T18:25:00.880Z,14.82
2022-09-11T18:27:29.904Z,14.30
2022-09-11T18:29:59.904Z,14.18
2022-09-11T18:32:29.999Z,14.77
2022-09-11T18:35:00.324Z,13.43
2022-09-11T18:37:29.411Z,11.00
2022-09-11T18:40:00.000Z,9.95
2022-09-11T18:42:30.041Z,10.48
2022-09-11T18:45:00.072Z,10.73
2022-09-11T18:47:31.980Z,9.82
2022-09-11T18:50:01.951Z,10.40
2022-09-11T18:52:32.625Z,10.85
2022-09-11T18:55:02.301Z,9.48
2022-09-11T18:57:31.578Z,10.18
2022-09-11T19:00:01.384Z,10.43
2022-09-11T19:02:32.403Z,10.40
2022-09-11T19:05:02.632Z,9.75
2022-09-11T19:07:33.328Z,9.52
2022-09-11T19:10:02.617Z,10.00
2022-09-11T19:12:31.845Z,9.75
2022-09-11T19:15:02.024Z,10.73
2022-09-11T19:17:31.127Z,9.23
2022-09-11T19:20:00.646Z,10.63
2022-09-11T19:22:31.484Z,10.55
2022-09-11T19:25:00.821Z,10.70
2022-09-11T19:27:32.793Z,9.70
2022-09-11T19:30:01.905Z,10.27
2022-09-11T19:32:32.538Z,10.60
2022-09-11T19:35:01.977Z,10.80
2022-09-11T19:37:30.931Z,10.57
2022-09-11T19:40:01.928Z,10.10
2022-09-11T19:42:32.335Z,11.10
2022-09-11T19:45:02.340Z,10.98
2022-09-11T19:47:31.329Z,11.02
2022-09-11T19:50:00.750Z,10.70
2022-09-11T19:52:33.037Z,10.15
2022-09-11T19:55:02.864Z,10.75
2022-09-11T19:57:32.819Z,12.02
2022-09-11T20:00:01.747Z,11.48
2022-09-11T20:02:33.984Z,10.23
2022-09-11T20:05:03.360Z,11.98
2022-09-11T20:07:32.963Z,11.00
2022-09-11T20:10:01.980Z,11.27
2022-09-11T20:12:38.089Z,11.50
2022-09-11T20:15:08.817Z,11.50
2022-09-11T20:17:38.219Z,12.20
2022-09-11T20:20:08.630Z,11.57
2022-09-11T20:22:38.193Z,12.45
2022-09-11T20:25:07.553Z,13.75
2022-09-11T20:27:37.532Z,14.00
2022-09-11T20:30:07.239Z,13.57
2022-09-11T20:32:40.328Z,12.27
2022-09-11T20:35:10.825Z,14.50
2022-09-11T20:37:40.348Z,12.75
2022-09-11T20:40:10.475Z,13.95
2022-09-11T20:42:41.146Z,12.63
2022-09-11T20:45:10.697Z,14.30
2022-09-11T20:47:40.792Z,13.32
2022-09-11T20:50:11.191Z,16.42
2022-09-11T20:52:40.293Z,16.23
2022-09-11T20:55:10.108Z,16.73
2022-09-11T20:57:39.588Z,14.27
2022-09-11T21:00:10.176Z,13.38
2022-09-11T21:02:39.258Z,12.88
2022-09-11T21:05:08.427Z,16.30
2022-09-11T21:07:37.744Z,16.13
2022-09-11T21:10:07.354Z,18.40
2022-09-11T21:12:37.214Z,19.83
2022-09-11T21:15:08.809Z,16.33
2022-09-11T21:17:38.793Z,16.65
2022-09-11T21:20:08.909Z,15.75
2022-09-11T21:22:38.513Z,16.30
2022-09-11T21:25:08.397Z,18.77
2022-09-11T21:27:37.721Z,19.20
2022-09-11T21:30:08.290Z,18.92
2022-09-11T21:32:37.781Z,15.77
2022-09-11T21:35:07.558Z,16.35
2022-09-11T21:37:36.869Z,15.77
2022-09-11T21:40:07.668Z,15.40
2022-09-11T21:42:37.121Z,17.58
2022-09-11T21:45:06.695Z,18.35
2022-09-11T21:47:36.035Z,18.20
2022-09-11T21:50:07.913Z,17.17
2022-09-11T21:52:37.533Z,18.30
2022-09-11T21:55:07.105Z,18.85
2022-09-11T21:57:36.379Z,17.88
2022-09-11T22:00:09.976Z,20.10
2022-09-11T22:02:39.031Z,18.52
2022-09-11T22:05:08.631Z,18.27
2022-09-11T22:07:38.399Z,18.67
2022-09-11T22:10:09.222Z,19.05
2022-09-11T22:12:38.555Z,19.30
2022-09-11T22:15:08.149Z,19.70
2022-09-11T22:17:37.563Z,19.52
2022-09-11T22:20:08.735Z,18.75
2022-09-11T22:22:39.970Z,18.60
2022-09-11T22:25:09.729Z,18.63
2022-09-11T22:27:41.080Z,18.27
2022-09-11T22:30:11.142Z,18.25
2022-09-11T22:32:40.958Z,17.17
2022-09-11T22:35:10.353Z,16.80
2022-09-11T22:37:39.811Z,16.65
2022-09-11T22:40:10.049Z,16.75
2022-09-11T22:42:39.472Z,18.35
2022-09-11T22:45:09.484Z,17.98
2022-09-11T22:47:38.695Z,16.45
2022-09-11T22:53:34.003Z,17.52
2022-09-11T22:56:07.351Z,17.60
2022-09-11T22:58:39.788Z,16.30
2022-09-11T23:01:16.769Z,17.63
2022-09-11T23:03:50.427Z,18.40
2022-09-11T23:06:38.999Z,16.90
2022-09-11T23:09:11.686Z,17.45
2022-09-11T23:11:42.345Z,17.73
2022-09-11T23:14:14.341Z,18.10
2022-09-11T23:19:16.129Z,16.83
2022-09-11T23:21:45.816Z,16.25
2022-09-11T23:24:15.652Z,17.98
2022-09-11T23:26:46.698Z,19.45
2022-09-11T23:29:16.396Z,18.52
2022-09-11T23:31:46.315Z,19.17
2022-09-11T23:34:17.800Z,20.00
2022-09-11T23:36:47.191Z,18.80
2022-09-11T23:39:16.756Z,18.55
2022-09-11T23:41:45.751Z,18.23
2022-09-11T23:44:16.128Z,18.67
2022-09-11T23:46:45.743Z,19.50
2022-09-11T23:49:16.636Z,20.08
2022-09-11T23:51:46.161Z,18.63
2022-09-11T23:54:15.336Z,20.85
2022-09-11T23:56:45.126Z,20.35
